Time;durP1;ratioP1;P1;durP2;ratioP2;P2;SDS_P1;SDS_P2;PMS_P1;PMS_P2;Temp;Humidity;BMP_temperature;BMP_pressure;BME280_temperature;BME280_humidity;BME280_pressure;Samples;Min_cycle;Max_cycle;Signal;HPM_P1;HPM_P2
2022/03/13 00:01:39;;;;;;;16.63;10.35;;;;;;;;;;5105841;28;20326;-59
2022/03/13 00:04:21;;;;;;;13.40;9.30;;;;;;;;;;5092794;28;20032;-59
2022/03/13 00:10:20;;;;;;;;;;;;;;;;;;;;;
2022/03/13 00:13:15;;;;;;;14.80;9.05;;;;;;;;;;5033634;28;20100;-59
2022/03/13 00:18:46;;;;;;;10.75;8.82;;;;;;;;;;5090221;28;20032;-59
2022/03/13 00:21:18;;;;;;;13.60;8.18;;;;;;;;;;5105918;28;20020;-59
2022/03/13 00:24:14;;;;;;;15.15;10.00;;;;;;;;;;5105208;28;20365;-59
2022/03/13 00:27:00;;;;;;;14.00;9.30;;;;;;;;;;5104614;28;20028;-59
2022/03/13 00:29:46;;;;;;;12.82;9.40;;;;;;;;;;5104987;28;20032;-59
2022/03/13 00:35:46;;;;;;;14.50;9.00;;;;;;;;;;5027332;28;20083;-59
2022/03/13 00:38:34;;;;;;;15.30;8.98;;;;;;;;;;5077652;28;20482;-59
2022/03/13 00:41:16;;;;;;;18.17;10.77;;;;;;;;;;5084894;28;20080;-59
2022/03/13 00:44:05;;;;;;;;;;;;;;;;;;;;;
2022/03/13 00:46:41;;;;;;;10.98;8.65;;;;;;;;;;5088384;28;20067;-59
2022/03/13 00:49:37;;;;;;;14.25;9.60;;;;;;;;;;5087499;28;20033;-59
2022/03/13 00:52:35;;;;;;;13.98;9.25;;;;;;;;;;5027079;28;20033;-59
2022/03/13 00:58:15;;;;;;;13.50;8.88;;;;;;;;;;5026449;28;20105;-59
2022/03/13 01:01:13;;;;;;;13.43;8.73;;;;;;;;;;5011586;28;20041;-59
2022/03/13 01:04:08;;;;;;;;;;;;;;;;;;;;;
2022/03/13 01:06:59;;;;;;;13.98;9.07;;;;;;;;;;4950495;29;20071;-59
2022/03/13 01:09:30;;;;;;;13.20;9.15;;;;;;;;;;4950772;29;20062;-59
2022/03/13 01:15:16;;;;;;;15.88;10.20;;;;;;;;;;4923153;29;20039;-59
2022/03/13 01:18:26;;;;;;;11.00;7.75;;;;;;;;;;4931455;29;20040;-59
2022/03/13 01:20:52;;;;;;;10.07;8.20;;;;;;;;;;4879434;29;20433;-59
2022/03/13 01:23:41;;;;;;;12.80;9.95;;;;;;;;;;4931448;29;20032;-59
2022/03/13 01:26:22;;;;;;;15.40;8.55;;;;;;;;;;4928273;29;20119;-59
2022/03/13 01:29:32;;;;;;;16.08;9.27;;;;;;;;;;4929850;29;20108;-59
2022/03/13 01:32:31;;;;;;;17.45;8.82;;;;;;;;;;4922029;28;20100;-59
2022/03/13 01:35:24;;;;;;;11.43;8.55;;;;;;;;;;5025765;28;20049;-59
2022/03/13 01:38:01;;;;;;;14.85;9.70;;;;;;;;;;5028195;28;20093;-59
2022/03/13 01:41:01;;;;;;;11.18;8.13;;;;;;;;;;5025058;28;20047;-59
2022/03/13 01:46:16;;;;;;;9.15;7.85;;;;;;;;;;5060047;28;20039;-59
2022/03/13 01:49:03;;;;;;;14.07;9.77;;;;;;;;;;5093362;28;20043;-59
2022/03/13 01:52:03;;;;;;;17.70;11.55;;;;;;;;;;5091861;28;20028;-59
2022/03/13 01:58:24;;;;;;;12.32;8.80;;;;;;;;;;5075801;28;20036;-59
2022/03/13 02:10:16;;;;;;;15.23;9.90;;;;;;;;;;5110039;28;20061;-59
2022/03/13 02:15:51;;;;;;;12.73;9.48;;;;;;;;;;5109510;28;20042;-59
2022/03/13 02:18:24;;;;;;;16.05;8.68;;;;;;;;;;5091261;28;20436;-59
2022/03/13 02:21:08;;;;;;;15.25;9.25;;;;;;;;;;5109797;28;20028;-59
2022/03/13 02:23:43;;;;;;;19.17;9.38;;;;;;;;;;5109058;28;20028;-59
2022/03/13 02:29:30;;;;;;;11.75;10.15;;;;;;;;;;5108909;28;20112;-59
2022/03/13 02:39:07;;;;;;;12.30;8.23;;;;;;;;;;5046835;28;20038;-59
2022/03/13 02:41:49;;;;;;;14.00;10.32;;;;;;;;;;5042253;28;20038;-59
2022/03/13 02:44:28;;;;;;;12.23;9.07;;;;;;;;;;5099250;28;20490;-59
2022/03/13 02:47:06;;;;;;;13.00;9.73;;;;;;;;;;5090188;28;20274;-59
2022/03/13 02:52:58;;;;;;;12.82;9.43;;;;;;;;;;5095129;28;20035;-59
2022/03/13 02:55:53;;;;;;;14.73;10.80;;;;;;;;;;5069805;28;20041;-59
2022/03/13 03:01:25;;;;;;;13.05;10.30;;;;;;;;;;5076826;28;20054;-59
2022/03/13 03:04:04;;;;;;;15.13;11.02;;;;;;;;;;5090963;28;20051;-59
2022/03/13 03:06:43;;;;;;;15.32;11.60;;;;;;;;;;5108299;28;20032;-59
2022/03/13 03:09:19;;;;;;;12.65;10.23;;;;;;;;;;5109302;28;20131;-59
2022/03/13 03:14:37;;;;;;;12.48;9.68;;;;;;;;;;5109036;28;20035;-59
2022/03/13 03:17:07;;;;;;;14.73;10.30;;;;;;;;;;5090642;28;20039;-59
2022/03/13 03:19:47;;;;;;;10.98;9.35;;;;;;;;;;5090938;28;20056;-59
2022/03/13 03:22:30;;;;;;;12.68;10.05;;;;;;;;;;5088956;28;20071;-59
2022/03/13 03:25:03;;;;;;;14.02;11.43;;;;;;;;;;5108348;28;20115;-59
2022/03/13 03:27:45;;;;;;;15.73;11.52;;;;;;;;;;5107816;28;20028;-59
2022/03/13 03:30:31;;;;;;;13.52;11.77;;;;;;;;;;5108228;28;20032;-59
2022/03/13 03:33:21;;;;;;;15.43;11.10;;;;;;;;;;5109216;28;20028;-59
2022/03/13 03:35:48;;;;;;;13.75;11.45;;;;;;;;;;5106874;28;20052;-59
2022/03/13 03:38:20;;;;;;;13.50;10.57;;;;;;;;;;5107432;28;20036;-59
2022/03/13 03:44:01;;;;;;;;;;;;;;;;;;5096004;28;20099;-59
2022/03/13 03:46:56;;;;;;;12.93;10.77;;;;;;;;;;5106242;28;19950;-59
2022/03/13 03:49:43;;;;;;;16.42;12.73;;;;;;;;;;5087749;28;20100;-59
2022/03/13 03:52:31;;;;;;;15.13;10.27;;;;;;;;;;5106943;28;20051;-59
2022/03/13 03:58:46;;;;;;;20.63;12.38;;;;;;;;;;5047173;28;20025;-59
2022/03/13 04:04:13;;;;;;;16.15;10.82;;;;;;;;;;5106296;28;20046;-59
2022/03/13 04:09:31;;;;;;;14.40;10.65;;;;;;;;;;5094525;28;20119;-59
2022/03/13 04:24:34;;;;;;;17.27;11.67;;;;;;;;;;5109276;28;20095;-59
2022/03/13 04:30:29;;;;;;;20.33;12.80;;;;;;;;;;5027828;28;20041;-59
2022/03/13 04:32:56;;;;;;;12.87;10.23;;;;;;;;;;5092027;28;20182;-59
2022/03/13 04:38:42;;;;;;;16.33;11.90;;;;;;;;;;5092488;28;20501;-59
2022/03/13 04:41:42;;;;;;;14.70;12.15;;;;;;;;;;5075251;28;20498;-59
2022/03/13 04:44:32;;;;;;;13.57;10.93;;;;;;;;;;5051732;28;20036;-59
2022/03/13 04:47:05;;;;;;;11.63;10.15;;;;;;;;;;5057287;28;20032;-59
2022/03/13 04:49:53;;;;;;;14.13;10.00;;;;;;;;;;5074750;28;20029;-59
2022/03/13 04:52:47;;;;;;;13.43;10.60;;;;;;;;;;5074622;28;20454;-59
2022/03/13 04:55:49;;;;;;;14.97;10.80;;;;;;;;;;5074989;28;20351;-58
2022/03/13 04:58:25;;;;;;;;;;;;;;;;;;;;;
2022/03/13 05:01:35;;;;;;;12.30;9.50;;;;;;;;;;5075186;28;19915;-59
2022/03/13 05:04:07;;;;;;;16.70;11.25;;;;;;;;;;5068891;28;20032;-59
2022/03/13 05:07:03;;;;;;;15.03;10.20;;;;;;;;;;5093431;28;20480;-60
2022/03/13 05:09:42;;;;;;;13.37;9.43;;;;;;;;;;5078605;28;20492;-59
2022/03/13 05:12:16;;;;;;;15.90;10.67;;;;;;;;;;5075930;28;20039;-59
2022/03/13 05:15:03;;;;;;;17.77;11.47;;;;;;;;;;5094610;28;20497;-59
2022/03/13 05:17:46;;;;;;;12.30;9.47;;;;;;;;;;5097670;28;20074;-59
2022/03/13 05:20:31;;;;;;;14.07;10.13;;;;;;;;;;5096897;28;20048;-59
2022/03/13 05:26:38;;;;;;;;;;;;;;;;;;;;;
2022/03/13 05:29:53;;;;;;;15.90;11.23;;;;;;;;;;5095981;28;20422;-59
2022/03/13 05:35:43;;;;;;;16.17;10.93;;;;;;;;;;5095994;28;20055;-59
2022/03/13 05:38:22;;;;;;;12.73;10.87;;;;;;;;;;5097403;28;20032;-59
2022/03/13 05:41:06;;;;;;;17.40;12.50;;;;;;;;;;5097035;28;20032;-59
2022/03/13 05:46:48;;;;;;;14.90;10.57;;;;;;;;;;5081756;28;20032;-59
2022/03/13 05:49:30;;;;;;;18.17;12.30;;;;;;;;;;5078716;28;20470;-58
2022/03/13 05:52:35;;;;;;;20.40;11.60;;;;;;;;;;5096619;28;20028;-59
2022/03/13 05:55:32;;;;;;;;;;;;;;;;;;;;;
2022/03/13 05:58:07;;;;;;;13.23;10.47;;;;;;;;;;5069996;28;20032;-59
2022/03/13 06:03:48;;;;;;;12.17;10.87;;;;;;;;;;5096301;28;20428;-59
2022/03/13 06:06:34;;;;;;;13.50;11.13;;;;;;;;;;5096325;28;20454;-59
2022/03/13 06:09:15;;;;;;;19.27;15.10;;;;;;;;;;5078211;28;20043;-59
2022/03/13 06:12:02;;;;;;;16.13;11.83;;;;;;;;;;5096503;28;20028;-59
2022/03/13 06:14:33;;;;;;;26.73;13.80;;;;;;;;;;5095239;28;20473;-60
2022/03/13 06:17:23;;;;;;;;;;;;;;;;;;;;;
2022/03/13 06:20:41;;;;;;;13.32;11.32;;;;;;;;;;5014124;28;20117;-60
2022/03/13 06:32:15;;;;;;;14.27;11.60;;;;;;;;;;5059299;28;20052;-59
2022/03/13 06:34:44;;;;;;;;;;;;;;;;;;5063456;28;20498;-59
2022/03/13 06:37:27;;;;;;;14.27;11.63;;;;;;;;;;5068206;28;19920;-59
2022/03/13 06:39:53;;;;;;;16.27;12.87;;;;;;;;;;5071167;28;20045;-59
2022/03/13 06:42:51;;;;;;;14.37;12.67;;;;;;;;;;5061477;28;20037;-59
2022/03/13 06:48:34;;;;;;;12.53;11.23;;;;;;;;;;5086295;28;20044;-59
2022/03/13 06:51:18;;;;;;;20.67;13.77;;;;;;;;;;5094966;28;20377;-59
2022/03/13 07:00:23;;;;;;;16.23;13.55;;;;;;;;;;5093934;28;20393;-59
2022/03/13 07:03:11;;;;;;;17.60;12.38;;;;;;;;;;5094652;28;20023;-59
2022/03/13 07:06:08;;;;;;;13.52;11.60;;;;;;;;;;5084198;28;20496;-59
2022/03/13 07:09:16;;;;;;;18.33;12.80;;;;;;;;;;5094277;28;20056;-59
2022/03/13 07:12:19;;;;;;;14.75;11.55;;;;;;;;;;5093980;28;20036;-59
2022/03/13 07:14:48;;;;;;;13.70;10.95;;;;;;;;;;5015294;28;20511;-59
2022/03/13 07:17:29;;;;;;;14.35;9.63;;;;;;;;;;5043185;28;20405;-59
2022/03/13 07:20:20;;;;;;;16.40;9.45;;;;;;;;;;5094150;28;20027;-59
2022/03/13 07:31:56;;;;;;;12.35;9.50;;;;;;;;;;5091404;28;20032;-59
2022/03/13 07:34:40;;;;;;;16.95;10.30;;;;;;;;;;5071088;28;20493;-59
2022/03/13 07:37:23;;;;;;;13.63;11.07;;;;;;;;;;5093804;28;20056;-59
2022/03/13 07:40:10;;;;;;;16.02;9.93;;;;;;;;;;5094744;28;20027;-59
2022/03/13 07:43:04;;;;;;;13.80;11.30;;;;;;;;;;5094686;28;20494;-59
2022/03/13 07:45:42;;;;;;;11.80;8.65;;;;;;;;;;5075960;28;20039;-59
2022/03/13 07:48:17;;;;;;;18.25;10.98;;;;;;;;;;5094252;28;20081;-59
2022/03/13 07:51:14;;;;;;;17.05;12.93;;;;;;;;;;5094577;28;20389;-59
2022/03/13 08:00:17;;;;;;;21.00;12.38;;;;;;;;;;5098186;28;20027;-59
2022/03/13 08:03:12;;;;;;;15.52;12.23;;;;;;;;;;5098891;28;20092;-59
2022/03/13 08:05:58;;;;;;;17.73;11.90;;;;;;;;;;5078810;28;20028;-59
2022/03/13 08:08:39;;;;;;;17.25;12.00;;;;;;;;;;5079938;28;20032;-59
2022/03/13 08:11:47;;;;;;;25.20;15.45;;;;;;;;;;5079553;28;20478;-59
2022/03/13 08:14:41;;;;;;;16.80;12.20;;;;;;;;;;5098766;28;20031;-59
2022/03/13 08:17:17;;;;;;;21.85;13.27;;;;;;;;;;5055554;28;20468;-59
2022/03/13 08:19:49;;;;;;;18.85;13.57;;;;;;;;;;5055237;28;20044;-59
2022/03/13 08:22:27;;;;;;;15.23;11.80;;;;;;;;;;5068516;28;20036;-59
2022/03/13 08:24:58;;;;;;;15.98;11.25;;;;;;;;;;5053756;28;20469;-59
2022/03/13 08:30:31;;;;;;;17.88;13.73;;;;;;;;;;5055117;28;20040;-59
2022/03/13 08:33:03;;;;;;;17.98;12.23;;;;;;;;;;5055688;28;20032;-59
2022/03/13 08:36:05;;;;;;;;;;;;;;;;;;;;;
2022/03/13 08:41:59;;;;;;;;;;;;;;;;;;;;;
2022/03/13 08:45:01;;;;;;;18.52;11.80;;;;;;;;;;5075525;28;20105;-59
2022/03/13 08:47:51;;;;;;;19.45;12.50;;;;;;;;;;5095481;28;20401;-60
2022/03/13 08:50:29;;;;;;;17.08;13.60;;;;;;;;;;5078564;28;20064;-59
2022/03/13 08:56:13;;;;;;;21.02;13.45;;;;;;;;;;5086686;28;20497;-59
2022/03/13 08:59:00;;;;;;;19.45;13.18;;;;;;;;;;5082313;28;20489;-59
2022/03/13 09:01:44;;;;;;;17.10;13.77;;;;;;;;;;5076479;28;20064;-59
2022/03/13 09:04:32;;;;;;;19.20;12.77;;;;;;;;;;5076866;28;20432;-59
2022/03/13 09:07:36;;;;;;;15.93;13.40;;;;;;;;;;5096896;28;20077;-59
2022/03/13 09:10:07;;;;;;;17.65;12.68;;;;;;;;;;5061312;28;20036;-59
2022/03/13 09:12:48;;;;;;;21.55;13.68;;;;;;;;;;5096002;28;20092;-59
2022/03/13 09:15:26;;;;;;;20.15;14.48;;;;;;;;;;5090111;28;20359;-59
2022/03/13 09:21:17;;;;;;;18.58;12.98;;;;;;;;;;5096332;28;20031;-59
2022/03/13 09:23:49;;;;;;;22.08;14.00;;;;;;;;;;5089594;28;20077;-59
2022/03/13 09:27:08;;;;;;;;;;;;;;;;;;;;;
2022/03/13 09:33:04;;;;;;;15.48;13.23;;;;;;;;;;5095644;28;20466;-59
2022/03/13 09:38:25;;;;;;;17.95;12.60;;;;;;;;;;5095822;28;20508;-59
2022/03/13 09:41:09;;;;;;;22.70;12.85;;;;;;;;;;5096000;28;20423;-59
2022/03/13 09:47:15;;;;;;;23.45;16.08;;;;;;;;;;5096035;28;20039;-59
2022/03/13 09:55:41;;;;;;;25.75;15.23;;;;;;;;;;5085048;28;20082;-60
2022/03/13 09:58:08;;;;;;;21.33;15.32;;;;;;;;;;5077157;28;20490;-59
2022/03/13 10:04:07;;;;;;;20.05;15.00;;;;;;;;;;5088395;28;20074;-59
2022/03/13 10:12:49;;;;;;;23.30;15.73;;;;;;;;;;5095851;28;20031;-59
2022/03/13 10:15:37;;;;;;;20.27;15.13;;;;;;;;;;5093243;28;20127;-60
2022/03/13 10:18:22;;;;;;;23.23;15.40;;;;;;;;;;5073670;28;20032;-60
2022/03/13 10:21:17;;;;;;;19.25;14.02;;;;;;;;;;5075883;28;20036;-60
2022/03/13 10:27:15;;;;;;;19.45;14.52;;;;;;;;;;5050166;28;20040;-60
2022/03/13 10:30:16;;;;;;;20.23;14.50;;;;;;;;;;5072526;28;20070;-60
2022/03/13 10:32:40;;;;;;;20.70;14.77;;;;;;;;;;5053955;28;20028;-60
2022/03/13 10:38:21;;;;;;;18.42;14.43;;;;;;;;;;5044142;28;20052;-59
2022/03/13 10:41:12;;;;;;;25.52;15.55;;;;;;;;;;5073250;28;20025;-60
2022/03/13 10:47:08;;;;;;;21.30;15.10;;;;;;;;;;5059552;28;20033;-60
2022/03/13 10:50:23;;;;;;;;;;;;;;;;;;;;;
2022/03/13 10:53:12;;;;;;;21.45;14.45;;;;;;;;;;5024739;28;20119;-60
2022/03/13 10:55:57;;;;;;;17.67;14.05;;;;;;;;;;5070096;28;20458;-59
2022/03/13 10:58:57;;;;;;;19.55;15.75;;;;;;;;;;5095765;28;20024;-60
2022/03/13 11:01:48;;;;;;;20.38;16.15;;;;;;;;;;5069626;28;20032;-60
2022/03/13 11:07:07;;;;;;;20.98;15.93;;;;;;;;;;5095458;28;20116;-59
2022/03/13 11:09:57;;;;;;;17.38;13.90;;;;;;;;;;5094761;28;20466;-60
2022/03/13 11:15:27;;;;;;;22.65;16.65;;;;;;;;;;5094996;28;20039;-60
2022/03/13 11:18:23;;;;;;;22.98;14.77;;;;;;;;;;5078289;28;20466;-60
2022/03/13 11:21:10;;;;;;;18.63;14.77;;;;;;;;;;5055383;28;20044;-60
2022/03/13 11:27:11;;;;;;;23.02;15.68;;;;;;;;;;5011481;28;20033;-60
2022/03/13 11:29:57;;;;;;;23.38;16.92;;;;;;;;;;5075002;28;20468;-60
2022/03/13 11:32:54;;;;;;;19.85;16.38;;;;;;;;;;5075695;28;20119;-59
2022/03/13 11:35:25;;;;;;;21.38;16.23;;;;;;;;;;5065536;28;20477;-59
2022/03/13 11:38:03;;;;;;;21.58;15.63;;;;;;;;;;5074651;28;20070;-60
2022/03/13 11:40:37;;;;;;;22.60;15.93;;;;;;;;;;5076849;28;20583;-60
2022/03/13 11:43:38;;;;;;;22.13;16.35;;;;;;;;;;5092590;28;20454;-60
2022/03/13 11:49:23;;;;;;;20.83;15.23;;;;;;;;;;5031529;28;19909;-60
2022/03/13 11:52:20;;;;;;;19.60;14.77;;;;;;;;;;5047533;28;20067;-59
2022/03/13 11:55:08;;;;;;;17.30;14.35;;;;;;;;;;5050712;28;20035;-59
2022/03/13 11:58:12;;;;;;;19.08;15.20;;;;;;;;;;5034632;28;20064;-59
2022/03/13 12:00:49;;;;;;;19.63;14.52;;;;;;;;;;5005224;28;20538;-60
2022/03/13 12:03:22;;;;;;;23.05;16.20;;;;;;;;;;5047275;28;20056;-59
2022/03/13 12:06:30;;;;;;;23.08;16.25;;;;;;;;;;5035826;28;20463;-60
2022/03/13 12:12:47;;;;;;;24.08;16.25;;;;;;;;;;5042467;28;20044;-60
2022/03/13 12:15:37;;;;;;;20.13;15.73;;;;;;;;;;5027624;28;20041;-60
2022/03/13 12:18:27;;;;;;;21.53;16.47;;;;;;;;;;5051173;28;20025;-60
2022/03/13 12:24:30;;;;;;;20.73;15.98;;;;;;;;;;5044253;28;20092;-60
2022/03/13 12:27:08;;;;;;;21.85;15.20;;;;;;;;;;5074331;28;20032;-60
2022/03/13 12:36:17;;;;;;;19.75;14.65;;;;;;;;;;5020355;28;20037;-60
2022/03/13 12:39:11;;;;;;;22.05;15.77;;;;;;;;;;5095040;28;20048;-60
2022/03/13 12:42:20;;;;;;;;;;;;;;;;;;;;;
2022/03/13 12:45:20;;;;;;;17.90;13.48;;;;;;;;;;5034475;28;20040;-59
2022/03/13 12:48:07;;;;;;;;;;;;;;;;;;;;;
2022/03/13 12:50:48;;;;;;;18.80;15.15;;;;;;;;;;5097155;28;20111;-60
2022/03/13 12:53:43;;;;;;;19.13;15.02;;;;;;;;;;5097437;28;20095;-59
2022/03/13 12:56:38;;;;;;;15.48;13.32;;;;;;;;;;5090561;28;20399;-60
2022/03/13 13:02:06;;;;;;;20.02;12.60;;;;;;;;;;5096670;28;20511;-59
2022/03/13 13:04:52;;;;;;;18.13;13.38;;;;;;;;;;5078239;28;20032;-59
2022/03/13 13:07:49;;;;;;;18.80;13.18;;;;;;;;;;5063939;28;20043;-58
2022/03/13 13:10:35;;;;;;;20.20;14.00;;;;;;;;;;5078213;28;20032;-58
2022/03/13 13:13:16;;;;;;;17.63;14.50;;;;;;;;;;5036455;28;20033;-59
2022/03/13 13:15:50;;;;;;;22.58;15.68;;;;;;;;;;5034395;28;20041;-59
2022/03/13 13:18:19;;;;;;;18.45;14.95;;;;;;;;;;5034843;28;20038;-59
2022/03/13 13:20:55;;;;;;;18.95;13.32;;;;;;;;;;5034690;28;20041;-59
2022/03/13 13:23:55;;;;;;;18.15;13.27;;;;;;;;;;5035154;28;20509;-59
2022/03/13 13:26:54;;;;;;;19.20;14.27;;;;;;;;;;4995465;28;20038;-59
2022/03/13 13:29:58;;;;;;;16.95;13.80;;;;;;;;;;4957508;28;20067;-59
2022/03/13 13:32:44;;;;;;;19.55;13.43;;;;;;;;;;4974442;28;20038;-59
2022/03/13 13:35:21;;;;;;;17.67;14.80;;;;;;;;;;4978675;28;20391;-59
2022/03/13 13:41:11;;;;;;;18.45;13.77;;;;;;;;;;4996447;28;20068;-59
2022/03/13 13:47:19;;;;;;;20.90;14.68;;;;;;;;;;5056037;28;20040;-59
2022/03/13 13:50:06;;;;;;;18.10;14.75;;;;;;;;;;5052027;28;20078;-59
2022/03/13 13:52:41;;;;;;;25.20;15.65;;;;;;;;;;5053739;28;20044;-59
2022/03/13 13:55:37;;;;;;;18.48;13.88;;;;;;;;;;5005775;28;20037;-59
2022/03/13 14:01:23;;;;;;;18.75;14.05;;;;;;;;;;5049253;28;20502;-59
2022/03/13 14:04:02;;;;;;;17.63;12.50;;;;;;;;;;5068542;28;20149;-59
2022/03/13 14:07:01;;;;;;;16.85;13.10;;;;;;;;;;5094571;28;20028;-59
2022/03/13 14:09:58;;;;;;;20.30;14.38;;;;;;;;;;5033149;28;20072;-59
2022/03/13 14:12:39;;;;;;;18.85;13.00;;;;;;;;;;5033520;28;20053;-59
2022/03/13 14:15:20;;;;;;;18.10;14.55;;;;;;;;;;5033922;28;20025;-59
2022/03/13 14:17:52;;;;;;;18.15;13.10;;;;;;;;;;5033690;28;20597;-59
2022/03/13 14:20:22;;;;;;;19.30;14.05;;;;;;;;;;5072021;28;20090;-59
2022/03/13 14:23:04;;;;;;;19.13;15.20;;;;;;;;;;5095077;28;20028;-59
2022/03/13 14:25:59;;;;;;;20.88;14.52;;;;;;;;;;5096003;28;20485;-59
2022/03/13 14:28:39;;;;;;;18.38;13.50;;;;;;;;;;5095044;28;20034;-59
2022/03/13 14:31:45;;;;;;;19.45;15.82;;;;;;;;;;5095234;28;20051;-59
2022/03/13 14:35:18;;;;;;;21.60;14.40;;;;;;;;;;5094715;28;20024;-59
2022/03/13 14:37:39;;;;;;;18.30;13.88;;;;;;;;;;5089925;28;20035;-59
2022/03/13 14:40:11;;;;;;;18.05;14.52;;;;;;;;;;5095843;28;20426;-59
2022/03/13 14:45:57;;;;;;;19.95;13.85;;;;;;;;;;5032329;28;20083;-59
2022/03/13 14:48:49;;;;;;;;;;;;;;;;;;;;;
2022/03/13 14:51:49;;;;;;;18.05;13.70;;;;;;;;;;5094711;28;20034;-59
2022/03/13 14:57:44;;;;;;;20.17;14.35;;;;;;;;;;5070839;28;20039;-59
2022/03/13 15:00:25;;;;;;;16.98;12.82;;;;;;;;;;5094584;28;20023;-59
2022/03/13 15:11:48;;;;;;;19.63;13.55;;;;;;;;;;5094771;28;20496;-59
2022/03/13 15:14:20;;;;;;;17.23;13.55;;;;;;;;;;5095779;28;20028;-59
2022/03/13 15:17:09;;;;;;;19.80;14.40;;;;;;;;;;5095068;28;20083;-59
2022/03/13 15:20:02;;;;;;;18.77;14.13;;;;;;;;;;5094693;28;20081;-59
2022/03/13 15:22:39;;;;;;;15.82;12.82;;;;;;;;;;5076664;28;20024;-59
2022/03/13 15:25:17;;;;;;;17.08;12.85;;;;;;;;;;5052679;28;20043;-59
2022/03/13 15:31:05;;;;;;;19.05;13.82;;;;;;;;;;5041101;28;20098;-59
2022/03/13 15:34:05;;;;;;;;;;;;;;;;;;;;;
2022/03/13 15:40:04;;;;;;;17.42;12.23;;;;;;;;;;5051150;28;20063;-59
2022/03/13 15:42:54;;;;;;;13.68;11.23;;;;;;;;;;5052447;28;20483;-59
2022/03/13 15:45:47;;;;;;;15.45;11.60;;;;;;;;;;5034152;28;20096;-59
2022/03/13 15:48:45;;;;;;;14.43;10.73;;;;;;;;;;5051772;28;20100;-59
2022/03/13 15:51:32;;;;;;;15.80;10.82;;;;;;;;;;5087694;28;20020;-59
2022/03/13 15:54:37;;;;;;;12.93;10.43;;;;;;;;;;5096560;28;20024;-59
2022/03/13 16:03:07;;;;;;;15.00;10.82;;;;;;;;;;5093863;28;20504;-59
2022/03/13 16:06:20;;;;;;;14.88;10.65;;;;;;;;;;5075814;28;20507;-59
2022/03/13 16:09:14;;;;;;;16.45;10.05;;;;;;;;;;5082591;28;20036;-59
2022/03/13 16:12:05;;;;;;;14.38;10.93;;;;;;;;;;5075161;28;20028;-59
2022/03/13 16:17:46;;;;;;;14.85;10.60;;;;;;;;;;5052994;28;20040;-59
2022/03/13 16:21:01;;;;;;;;;;;;;;;;;;;;;
2022/03/13 16:26:38;;;;;;;10.85;8.93;;;;;;;;;;5097581;28;20390;-59
2022/03/13 16:29:28;;;;;;;;;;;;;;;;;;;;;
2022/03/13 16:32:24;;;;;;;14.98;10.38;;;;;;;;;;5097627;28;20032;-59
2022/03/13 16:35:17;;;;;;;12.07;10.40;;;;;;;;;;5096989;28;20028;-59
2022/03/13 16:38:06;;;;;;;14.40;9.65;;;;;;;;;;5095326;28;20032;-59
2022/03/13 16:41:01;;;;;;;13.05;9.00;;;;;;;;;;5060991;28;20043;-59
2022/03/13 16:47:08;;;;;;;12.57;9.88;;;;;;;;;;5065528;28;20032;-59
2022/03/13 16:49:52;;;;;;;;;;;;;;;;;;;;;
2022/03/13 16:53:19;;;;;;;;;;;;;;;;;;;;;
2022/03/13 16:56:07;;;;;;;10.35;8.52;;;;;;;;;;5075100;28;20036;-59
2022/03/13 16:59:09;;;;;;;11.98;9.02;;;;;;;;;;5079091;28;20420;-59
2022/03/13 17:01:46;;;;;;;;;;;;;;;;;;;;;
2022/03/13 17:04:41;;;;;;;12.73;9.50;;;;;;;;;;5097676;28;20436;-59
2022/03/13 17:07:13;;;;;;;14.38;10.10;;;;;;;;;;5072887;28;20036;-59
2022/03/13 17:09:51;;;;;;;14.82;9.85;;;;;;;;;;5097803;28;20123;-59
2022/03/13 17:12:47;;;;;;;15.20;8.63;;;;;;;;;;5097669;28;20374;-59
2022/03/13 17:15:30;;;;;;;;;;;;;;;;;;;;;
2022/03/13 17:18:32;;;;;;;;;;;;;;;;;;;;;
2022/03/13 17:24:34;;;;;;;11.25;8.43;;;;;;;;;;5076774;28;20071;-59
2022/03/13 17:30:49;;;;;;;10.80;8.10;;;;;;;;;;5014436;28;20034;-59
2022/03/13 17:33:34;;;;;;;11.20;7.97;;;;;;;;;;5042366;28;20055;-59
2022/03/13 17:36:34;;;;;;;9.93;7.60;;;;;;;;;;5096719;28;20032;-59
2022/03/13 17:39:02;;;;;;;10.23;7.47;;;;;;;;;;5095060;28;20043;-59
2022/03/13 17:42:03;;;;;;;9.95;7.97;;;;;;;;;;5077977;28;20036;-59
2022/03/13 17:44:56;;;;;;;11.10;6.22;;;;;;;;;;5092698;28;20040;-59
2022/03/13 17:48:19;;;;;;;10.77;7.32;;;;;;;;;;5066040;28;20062;-59
2022/03/13 17:51:15;;;;;;;8.75;7.82;;;;;;;;;;4997149;28;20134;-59
2022/03/13 17:57:00;;;;;;;11.80;7.40;;;;;;;;;;4963564;28;20030;-59
2022/03/13 18:00:07;;;;;;;10.50;6.95;;;;;;;;;;5007435;28;20563;-59
2022/03/13 18:02:49;;;;;;;8.75;6.55;;;;;;;;;;4994671;28;20500;-59
2022/03/13 18:08:37;;;;;;;;;;;;;;;;;;;;;
2022/03/13 18:11:25;;;;;;;;;;;;;;;;;;;;;
2022/03/13 18:17:47;;;;;;;9.90;6.43;;;;;;;;;;5090528;28;20101;-59
2022/03/13 18:20:38;;;;;;;9.38;7.60;;;;;;;;;;5090259;28;20036;-59
2022/03/13 18:26:16;;;;;;;8.43;5.65;;;;;;;;;;5095005;28;20062;-59
2022/03/13 18:29:03;;;;;;;12.70;7.55;;;;;;;;;;5076382;28;20043;-59
2022/03/13 18:31:37;;;;;;;9.30;7.45;;;;;;;;;;5095425;28;20032;-59
2022/03/13 18:37:03;;;;;;;9.43;6.70;;;;;;;;;;5094425;28;20462;-59
2022/03/13 18:39:42;;;;;;;15.38;7.72;;;;;;;;;;5051785;28;20052;-59
2022/03/13 18:42:40;;;;;;;8.50;6.28;;;;;;;;;;5052732;28;20037;-59
2022/03/13 18:45:27;;;;;;;9.23;7.00;;;;;;;;;;5050036;28;20542;-60
2022/03/13 18:48:10;;;;;;;12.10;8.15;;;;;;;;;;5052515;28;20033;-59
2022/03/13 18:51:03;;;;;;;9.93;7.57;;;;;;;;;;5052156;28;20386;-58
2022/03/13 18:56:22;;;;;;;11.10;7.68;;;;;;;;;;5045038;28;20052;-58
2022/03/13 18:58:57;;;;;;;9.85;8.32;;;;;;;;;;5035448;28;20533;-58
2022/03/13 19:05:11;;;;;;;9.88;6.80;;;;;;;;;;5082896;28;20377;-59
2022/03/13 19:07:48;;;;;;;11.00;7.95;;;;;;;;;;5012918;28;20069;-59
2022/03/13 19:10:24;;;;;;;9.25;7.60;;;;;;;;;;5075266;28;20044;-59
2022/03/13 19:13:12;;;;;;;13.73;8.48;;;;;;;;;;5094319;28;20047;-59
2022/03/13 19:16:01;;;;;;;11.10;8.70;;;;;;;;;;5090251;28;20036;-59
2022/03/13 19:18:36;;;;;;;10.13;6.88;;;;;;;;;;5075965;28;20046;-59
2022/03/13 19:27:06;;;;;;;10.85;7.78;;;;;;;;;;5094785;28;20047;-59
2022/03/13 19:32:35;;;;;;;11.85;8.13;;;;;;;;;;5094561;28;20069;-59
2022/03/13 19:35:17;;;;;;;9.05;7.10;;;;;;;;;;5073435;28;20028;-59
2022/03/13 19:38:11;;;;;;;10.77;8.35;;;;;;;;;;5076543;28;20486;-59
2022/03/13 19:43:32;;;;;;;13.38;8.13;;;;;;;;;;5074716;28;20075;-59
2022/03/13 19:46:19;;;;;;;12.90;7.80;;;;;;;;;;5074131;28;20036;-59
2022/03/13 19:49:13;;;;;;;11.00;8.48;;;;;;;;;;5078548;28;20028;-59
2022/03/13 19:52:14;;;;;;;9.80;7.22;;;;;;;;;;5060324;28;20098;-59
2022/03/13 19:54:43;;;;;;;;;;;;;;;;;;5077308;28;20421;-59
2022/03/13 19:57:42;;;;;;;10.75;7.32;;;;;;;;;;5060111;28;19908;-59
2022/03/13 20:03:09;;;;;;;10.07;8.07;;;;;;;;;;5078575;28;20031;-59
2022/03/13 20:06:00;;;;;;;11.43;9.02;;;;;;;;;;5078917;28;20023;-59
2022/03/13 20:08:48;;;;;;;14.68;7.13;;;;;;;;;;5077654;28;20035;-59
2022/03/13 20:11:20;;;;;;;9.85;7.20;;;;;;;;;;5059999;28;20021;-59
2022/03/13 20:14:33;;;;;;;11.00;7.60;;;;;;;;;;5078490;28;20033;-59
2022/03/13 20:17:17;;;;;;;11.50;7.70;;;;;;;;;;5077835;28;20454;-59
2022/03/13 20:20:04;;;;;;;11.18;8.80;;;;;;;;;;5059987;28;20025;-59
2022/03/13 20:22:56;;;;;;;12.38;8.15;;;;;;;;;;5078321;28;20027;-59
2022/03/13 20:25:54;;;;;;;15.10;10.10;;;;;;;;;;5078940;28;20040;-59
2022/03/13 20:31:33;;;;;;;12.48;9.10;;;;;;;;;;5075141;28;20033;-59
2022/03/13 20:34:20;;;;;;;12.00;9.13;;;;;;;;;;5083380;28;20044;-59
2022/03/13 20:39:51;;;;;;;10.05;8.68;;;;;;;;;;5048968;28;20055;-59
2022/03/13 20:42:22;;;;;;;10.52;8.82;;;;;;;;;;5097198;28;20170;-59
2022/03/13 20:47:40;;;;;;;10.68;8.48;;;;;;;;;;5097894;28;20039;-59
2022/03/13 20:50:36;;;;;;;13.32;9.73;;;;;;;;;;5079006;28;20032;-59
2022/03/13 20:53:08;;;;;;;15.57;9.55;;;;;;;;;;5097034;28;20466;-58
2022/03/13 20:58:41;;;;;;;15.88;8.73;;;;;;;;;;5091477;28;20457;-59
2022/03/13 21:01:19;;;;;;;11.65;9.27;;;;;;;;;;5077654;28;20036;-59
2022/03/13 21:04:00;;;;;;;9.65;6.82;;;;;;;;;;5096491;28;20024;-59
2022/03/13 21:06:44;;;;;;;;;;;;;;;;;;5079022;28;20462;-59
2022/03/13 21:09:16;;;;;;;11.50;8.27;;;;;;;;;;5096837;28;19958;-59
2022/03/13 21:12:31;;;;;;;13.88;8.88;;;;;;;;;;5079585;28;20028;-59
2022/03/13 21:15:25;;;;;;;10.52;7.25;;;;;;;;;;5015322;28;20054;-59
2022/03/13 21:18:03;;;;;;;12.43;8.73;;;;;;;;;;4996911;28;20096;-59
2022/03/13 21:20:48;;;;;;;;;;;;;;;;;;;;;
2022/03/13 21:23:30;;;;;;;9.20;7.55;;;;;;;;;;5014336;28;20036;-59
2022/03/13 21:26:22;;;;;;;11.52;7.95;;;;;;;;;;4987698;28;20076;-59
2022/03/13 21:29:01;;;;;;;11.45;7.80;;;;;;;;;;5031241;28;20123;-59
2022/03/13 21:31:50;;;;;;;14.43;8.82;;;;;;;;;;5034479;28;20495;-59
2022/03/13 21:34:30;;;;;;;12.88;9.00;;;;;;;;;;5018400;28;20037;-59
2022/03/13 21:40:46;;;;;;;8.35;6.88;;;;;;;;;;5024208;28;20140;-59
2022/03/13 21:43:47;;;;;;;13.40;8.38;;;;;;;;;;5017361;28;20121;-59
2022/03/13 21:46:14;;;;;;;15.73;8.93;;;;;;;;;;5033964;28;20128;-59
2022/03/13 21:48:49;;;;;;;12.23;8.30;;;;;;;;;;5001188;28;20037;-59